Atlantic Beach, North Carolina
Current Conditions -  °F | °C
As of 1:58 PM on Tuesday 21 Oct 2014 (Local Time) from KMRH Reporting Station
Clear Clear  
Wind Chill: 73°   Ceiling: Unl
Heat Index: 73°   Visibility: 10mi
Dew Point: 59°   Wind: 12mph
Humidity: 61%   Direction: 200°SSW
Pressure: 29.87"   Gusts: NA
Location:  34.7°N, 76.74°W
Report Text: KMRH 211758Z AUTO 20010KT 10SM CLR 23/15 A2987 RMK AO2 SLP114 T02280150 10239 20161 57018 TSNO
Loading
Personal Weather Stations






























Interactive Weather Map
Tropical Storm Tracking
New forecast layout! Learn more

10-Day Weather Forecast

Advertisements
Track Severe Weather on mobile